createdAt,value
2022-11-12T00:00:37.408Z,0.00
2022-11-12T00:05:37.359Z,0.00
2022-11-12T00:10:37.252Z,0.00
2022-11-12T00:15:37.259Z,0.00
2022-11-12T00:20:37.123Z,0.00
2022-11-12T00:25:37.067Z,0.00
2022-11-12T00:30:37.037Z,0.00
2022-11-12T00:35:36.913Z,0.00
2022-11-12T00:40:36.862Z,0.00
2022-11-12T00:45:36.807Z,0.00
2022-11-12T00:50:36.725Z,0.00
2022-11-12T00:55:36.661Z,0.00
2022-11-12T01:00:36.694Z,0.00
2022-11-12T01:05:36.557Z,0.00
2022-11-12T01:10:36.498Z,0.00
2022-11-12T01:15:36.414Z,0.00
2022-11-12T01:20:36.350Z,0.00
2022-11-12T01:25:36.295Z,0.00
2022-11-12T01:30:36.184Z,0.00
2022-11-12T01:35:36.140Z,0.00
2022-11-12T01:40:36.096Z,0.00
2022-11-12T01:45:36.036Z,0.00
2022-11-12T01:50:35.953Z,0.00
2022-11-12T01:55:35.895Z,0.00
2022-11-12T02:00:35.817Z,0.00
2022-11-12T02:05:35.854Z,0.00
2022-11-12T02:10:35.714Z,0.00
2022-11-12T02:15:35.610Z,0.00
2022-11-12T02:20:35.565Z,0.00
2022-11-12T02:25:35.492Z,0.00
2022-11-12T02:30:35.430Z,0.00
2022-11-12T02:35:35.363Z,0.00
2022-11-12T02:40:35.306Z,0.00
2022-11-12T02:45:35.320Z,0.00
2022-11-12T02:50:35.215Z,0.00
2022-11-12T02:55:35.101Z,0.00
2022-11-12T03:00:35.089Z,0.00
2022-11-12T03:05:34.978Z,0.00
2022-11-12T03:10:34.955Z,0.00
2022-11-12T03:15:34.848Z,0.00
2022-11-12T03:20:34.799Z,0.00
2022-11-12T03:25:34.709Z,0.00
2022-11-12T03:30:34.648Z,0.00
2022-11-12T03:35:34.596Z,0.00
2022-11-12T03:40:34.551Z,0.00
2022-11-12T03:45:34.454Z,0.00
2022-11-12T03:50:34.430Z,0.00
2022-11-12T03:55:34.346Z,0.00
2022-11-12T04:00:34.287Z,0.00
2022-11-12T04:05:34.241Z,0.00
2022-11-12T04:10:34.116Z,0.00
2022-11-12T04:15:34.087Z,0.00
2022-11-12T04:20:33.967Z,0.00
2022-11-12T04:25:33.943Z,0.00
2022-11-12T04:30:33.877Z,0.00
2022-11-12T04:35:33.823Z,0.00
2022-11-12T04:40:33.769Z,0.00
2022-11-12T04:45:33.668Z,0.00
2022-11-12T04:50:33.582Z,0.00
2022-11-12T04:55:33.528Z,0.00
2022-11-12T05:00:33.515Z,0.00
2022-11-12T05:05:34.254Z,0.00
2022-11-12T05:10:33.352Z,0.00
2022-11-12T05:15:33.283Z,0.00
2022-11-12T05:20:33.215Z,0.00
2022-11-12T05:25:33.138Z,0.00
2022-11-12T05:30:33.080Z,0.00
2022-11-12T05:35:33.037Z,0.00
2022-11-12T05:40:32.949Z,4.00
2022-11-12T05:45:32.933Z,4.00
2022-11-12T05:50:39.873Z,8.00
2022-11-12T05:55:37.012Z,12.00
2022-11-12T06:00:32.710Z,28.00
2022-11-12T06:05:32.629Z,48.00
2022-11-12T06:10:32.567Z,92.00
2022-11-12T06:15:37.983Z,152.00
2022-11-12T06:20:33.432Z,212.00
2022-11-12T06:25:32.344Z,336.00
2022-11-12T06:30:32.333Z,352.00
2022-11-12T06:35:32.222Z,424.00
2022-11-12T06:40:32.186Z,568.00
2022-11-12T06:45:32.096Z,740.00
2022-11-12T06:50:32.043Z,1008.00
2022-11-12T06:55:31.995Z,1404.00
2022-11-12T07:00:31.929Z,1436.00
2022-11-12T07:05:31.849Z,1532.00
2022-11-12T07:10:31.807Z,1444.00
2022-11-12T07:15:31.760Z,1664.00
2022-11-12T07:20:31.721Z,1768.00
2022-11-12T07:25:31.577Z,1516.00
2022-11-12T07:30:31.534Z,2604.00
2022-11-12T07:35:31.491Z,3912.00
2022-11-12T07:40:31.381Z,7696.00
2022-11-12T07:45:31.370Z,6172.00
2022-11-12T07:50:31.254Z,7684.00
2022-11-12T07:55:31.197Z,8260.00
2022-11-12T08:00:31.159Z,10172.00
2022-11-12T08:05:31.101Z,10400.00
2022-11-12T08:10:31.064Z,9352.00
2022-11-12T08:15:30.964Z,7468.00
2022-11-12T08:20:30.960Z,6912.00
2022-11-12T08:25:30.788Z,7256.00
2022-11-12T08:30:30.783Z,7800.00
2022-11-12T08:35:30.735Z,9388.00
2022-11-12T08:40:30.663Z,9608.00
2022-11-12T08:45:30.606Z,9772.00
2022-11-12T08:50:30.577Z,9656.00
2022-11-12T08:55:30.491Z,9320.00
2022-11-12T09:00:30.418Z,9092.00
2022-11-12T09:05:30.361Z,8976.00
2022-11-12T09:10:30.311Z,8684.00
2022-11-12T09:15:37.479Z,8404.00
2022-11-12T09:20:31.351Z,8176.00
2022-11-12T09:25:30.055Z,8008.00
2022-11-12T09:30:30.019Z,7680.00
2022-11-12T09:35:29.871Z,7368.00
2022-11-12T09:40:29.843Z,6936.00
2022-11-12T09:45:29.838Z,7004.00
2022-11-12T09:50:29.705Z,7244.00
2022-11-12T09:55:29.685Z,7132.00
2022-11-12T10:00:29.683Z,6412.00
2022-11-12T10:05:29.669Z,6052.00
2022-11-12T10:10:29.447Z,6280.00
2022-11-12T10:15:29.359Z,6120.00
2022-11-12T10:20:30.237Z,6208.00
2022-11-12T10:25:29.234Z,5904.00
2022-11-12T10:30:29.187Z,5664.00
2022-11-12T10:35:29.083Z,5552.00
2022-11-12T10:40:29.049Z,5440.00
2022-11-12T10:45:28.967Z,5360.00
2022-11-12T10:50:28.897Z,5316.00
2022-11-12T10:55:28.804Z,5240.00
2022-11-12T11:00:28.741Z,5180.00
2022-11-12T11:05:28.675Z,5068.00
2022-11-12T11:10:28.637Z,5048.00
2022-11-12T11:15:28.602Z,5096.00
2022-11-12T11:20:28.481Z,4972.00
2022-11-12T11:25:28.465Z,5040.00
2022-11-12T11:30:28.373Z,5016.00
2022-11-12T11:35:28.283Z,4972.00
2022-11-12T11:40:28.291Z,4988.00
2022-11-12T11:45:28.175Z,4912.00
2022-11-12T11:50:28.154Z,5012.00
2022-11-12T11:55:28.036Z,5020.00
2022-11-12T12:00:27.955Z,5040.00
2022-11-12T12:05:27.882Z,4988.00
2022-11-12T12:10:53.280Z,4996.00
2022-11-12T12:15:28.745Z,4964.00
2022-11-12T12:20:27.771Z,4900.00
2022-11-12T12:25:27.632Z,4864.00
2022-11-12T12:30:27.574Z,4760.00
2022-11-12T12:35:27.535Z,4704.00
2022-11-12T12:40:27.542Z,4584.00
2022-11-12T12:45:29.617Z,4396.00
2022-11-12T12:50:28.384Z,4248.00
2022-11-12T12:55:27.240Z,4092.00
2022-11-12T13:00:27.273Z,3936.00
2022-11-12T13:05:27.126Z,4000.00
2022-11-12T13:10:27.029Z,3860.00
2022-11-12T13:15:26.974Z,3768.00
2022-11-12T13:20:26.897Z,3636.00
2022-11-12T13:25:26.830Z,3508.00
2022-11-12T13:30:26.787Z,3380.00
2022-11-12T13:35:26.711Z,3372.00
2022-11-12T13:40:26.644Z,3312.00
2022-11-12T13:45:26.574Z,3244.00
2022-11-12T13:50:26.513Z,3200.00
2022-11-12T13:55:26.430Z,3160.00
2022-11-12T14:00:26.370Z,3048.00
2022-11-12T14:05:26.316Z,2880.00
2022-11-12T14:10:26.243Z,2708.00
2022-11-12T14:15:26.185Z,2572.00
2022-11-12T14:20:26.115Z,2412.00
2022-11-12T14:25:26.037Z,2288.00
2022-11-12T14:30:26.002Z,2116.00
2022-11-12T14:35:25.998Z,1904.00
2022-11-12T14:40:25.842Z,1696.00
2022-11-12T14:45:25.793Z,1520.00
2022-11-12T14:50:25.785Z,1264.00
2022-11-12T14:55:25.652Z,1028.00
2022-11-12T15:00:25.632Z,792.00
2022-11-12T15:05:25.549Z,580.00
2022-11-12T15:10:25.436Z,400.00
2022-11-12T15:15:25.404Z,264.00
2022-11-12T15:20:25.337Z,168.00
2022-11-12T15:25:25.292Z,100.00
2022-11-12T15:30:25.199Z,52.00
2022-11-12T15:35:25.158Z,28.00
2022-11-12T15:40:25.070Z,12.00
2022-11-12T15:45:25.339Z,8.00
2022-11-12T15:50:24.944Z,4.00
2022-11-12T15:55:24.876Z,0.00
2022-11-12T16:00:24.909Z,0.00
2022-11-12T16:05:24.745Z,0.00
2022-11-12T16:10:24.684Z,0.00
2022-11-12T16:15:24.634Z,0.00
2022-11-12T16:20:24.560Z,0.00
2022-11-12T16:25:24.467Z,0.00
2022-11-12T16:30:24.422Z,0.00
2022-11-12T16:35:24.580Z,0.00
2022-11-12T16:40:24.299Z,0.00
2022-11-12T16:45:24.194Z,0.00
2022-11-12T16:50:24.185Z,0.00
2022-11-12T16:55:24.085Z,0.00
2022-11-12T17:00:24.058Z,0.00
2022-11-12T17:05:23.957Z,0.00
2022-11-12T17:10:23.906Z,0.00
2022-11-12T17:15:23.835Z,0.00
2022-11-12T17:20:23.810Z,0.00
2022-11-12T17:25:23.689Z,0.00
2022-11-12T17:30:23.648Z,0.00
2022-11-12T17:35:23.617Z,0.00
2022-11-12T17:40:23.490Z,0.00
2022-11-12T17:45:23.431Z,0.00
2022-11-12T17:50:23.364Z,0.00
2022-11-12T17:55:23.322Z,0.00
2022-11-12T18:00:23.538Z,0.00
2022-11-12T18:05:23.159Z,0.00
2022-11-12T18:10:23.382Z,0.00
2022-11-12T18:15:23.067Z,0.00
2022-11-12T18:20:23.240Z,0.00
2022-11-12T18:25:22.909Z,0.00
2022-11-12T18:30:22.863Z,0.00
2022-11-12T18:35:28.570Z,0.00
2022-11-12T18:40:23.716Z,0.00
2022-11-12T18:45:22.642Z,0.00
2022-11-12T18:50:22.651Z,0.00
2022-11-12T18:55:22.529Z,0.00
2022-11-12T19:00:22.570Z,0.00
2022-11-12T19:05:22.449Z,0.00
2022-11-12T19:10:22.364Z,0.00
2022-11-12T19:15:26.559Z,0.00
2022-11-12T19:20:22.250Z,0.00
2022-11-12T19:25:23.111Z,0.00
2022-11-12T19:30:22.102Z,0.00
2022-11-12T19:35:22.040Z,0.00
2022-11-12T19:40:21.999Z,0.00
2022-11-12T19:45:22.042Z,0.00
2022-11-12T19:50:24.688Z,0.00
2022-11-12T19:55:21.752Z,0.00
2022-11-12T20:00:21.667Z,0.00
2022-11-12T20:05:22.367Z,0.00
2022-11-12T20:10:21.779Z,0.00
2022-11-12T20:15:21.464Z,0.00
2022-11-12T20:20:21.400Z,0.00
2022-11-12T20:25:21.364Z,0.00
2022-11-12T20:30:21.293Z,0.00
2022-11-12T20:35:22.479Z,0.00
2022-11-12T20:40:21.153Z,0.00
2022-11-12T20:45:21.072Z,0.00
2022-11-12T20:50:21.187Z,0.00
2022-11-12T20:55:22.007Z,0.00
2022-11-12T21:00:24.096Z,0.00
2022-11-12T21:05:20.809Z,0.00
2022-11-12T21:10:20.785Z,0.00
2022-11-12T21:15:20.702Z,0.00
2022-11-12T21:20:20.699Z,0.00
2022-11-12T21:25:20.539Z,0.00
2022-11-12T21:30:20.549Z,0.00
2022-11-12T21:35:20.506Z,0.00
2022-11-12T21:40:20.384Z,0.00
2022-11-12T21:45:20.313Z,0.00
2022-11-12T21:50:20.308Z,0.00
2022-11-12T21:55:20.186Z,0.00
2022-11-12T22:00:40.908Z,0.00
2022-11-12T22:05:21.075Z,0.00
2022-11-12T22:10:20.044Z,0.00
2022-11-12T22:15:24.183Z,0.00
2022-11-12T22:20:19.870Z,0.00
2022-11-12T22:25:19.819Z,0.00
2022-11-12T22:30:19.718Z,0.00
2022-11-12T22:35:19.653Z,0.00
2022-11-12T22:40:19.641Z,0.00
2022-11-12T22:45:19.594Z,0.00
2022-11-12T22:50:19.459Z,0.00
2022-11-12T22:55:19.424Z,0.00
2022-11-12T23:00:19.337Z,0.00
2022-11-12T23:05:19.319Z,0.00
2022-11-12T23:10:19.502Z,0.00
2022-11-12T23:15:19.177Z,0.00
2022-11-12T23:20:19.128Z,0.00
2022-11-12T23:25:19.032Z,0.00
2022-11-12T23:30:18.961Z,0.00
2022-11-12T23:35:18.917Z,0.00
2022-11-12T23:40:18.875Z,0.00
2022-11-12T23:45:19.557Z,0.00
2022-11-12T23:50:19.369Z,0.00
2022-11-12T23:55:18.678Z,0.00
